createdAt,value
2023-06-19T00:01:59.675Z,97224.06
2023-06-19T00:04:28.884Z,97223.47
2023-06-19T00:06:58.370Z,97226.59
2023-06-19T00:09:26.321Z,97214.91
2023-06-19T00:11:55.065Z,97220.78
2023-06-19T00:14:23.360Z,97220.44
2023-06-19T00:16:52.543Z,97221.97
2023-06-19T00:19:20.756Z,97211.81
2023-06-19T00:21:48.754Z,97216.50
2023-06-19T00:24:18.772Z,97227.81
2023-06-19T00:26:47.262Z,97224.97
2023-06-19T00:29:15.858Z,97224.63
2023-06-19T00:31:43.818Z,97225.31
2023-06-19T00:34:11.953Z,97225.06
2023-06-19T00:36:42.105Z,97227.56
2023-06-19T00:39:10.365Z,97225.75
2023-06-19T00:41:41.482Z,97223.47
2023-06-19T00:44:09.560Z,97230.94
2023-06-19T00:46:42.811Z,97222.41
2023-06-19T00:49:10.912Z,97227.50
2023-06-19T00:51:40.290Z,97222.19
2023-06-19T00:54:09.598Z,97219.53
2023-06-19T00:56:42.295Z,97216.00
2023-06-19T00:59:18.745Z,97224.38
2023-06-19T01:01:47.492Z,97221.31
2023-06-19T01:04:16.801Z,97227.97
2023-06-19T01:06:53.707Z,97220.25
2023-06-19T01:09:23.774Z,97219.94
2023-06-19T01:12:00.389Z,97222.69
2023-06-19T01:14:30.821Z,97222.22
2023-06-19T01:16:59.726Z,97216.22
2023-06-19T01:19:28.691Z,97211.78
2023-06-19T01:21:56.646Z,97206.97
2023-06-19T01:24:26.354Z,97209.53
2023-06-19T01:26:54.832Z,97209.59
2023-06-19T01:29:23.436Z,97201.66
2023-06-19T01:31:57.732Z,97198.25
2023-06-19T01:34:29.844Z,97202.06
2023-06-19T01:36:59.289Z,97198.00
2023-06-19T01:39:30.286Z,97191.16
2023-06-19T01:41:59.279Z,97198.03
2023-06-19T01:44:27.719Z,97206.31
2023-06-19T01:46:56.397Z,97201.81
2023-06-19T01:49:24.724Z,97198.16
2023-06-19T01:51:52.836Z,97199.88
2023-06-19T01:54:21.435Z,97202.09
2023-06-19T01:56:50.905Z,97206.53
2023-06-19T01:59:20.003Z,97213.06
2023-06-19T02:01:48.148Z,97209.19
2023-06-19T02:04:16.718Z,97219.41
2023-06-19T02:06:45.260Z,97209.88
2023-06-19T02:09:13.331Z,97207.56
2023-06-19T02:11:41.506Z,97206.88
2023-06-19T02:14:12.363Z,97209.13
2023-06-19T02:16:42.595Z,97195.03
2023-06-19T02:19:10.990Z,97207.69
2023-06-19T02:21:39.749Z,97212.63
2023-06-19T02:24:08.093Z,97214.84
2023-06-19T02:26:36.562Z,97215.38
2023-06-19T02:29:05.041Z,97211.66
2023-06-19T02:31:34.374Z,97202.47
2023-06-19T02:34:02.404Z,97200.56
2023-06-19T02:36:32.016Z,97204.44
2023-06-19T02:39:01.259Z,97197.16
2023-06-19T02:41:29.475Z,97202.34
2023-06-19T02:43:58.107Z,97197.28
2023-06-19T02:46:26.286Z,97200.16
2023-06-19T02:48:55.833Z,97190.13
2023-06-19T02:51:24.373Z,97199.44
2023-06-19T02:53:52.554Z,97206.56
2023-06-19T02:56:21.044Z,97202.56
2023-06-19T02:58:49.609Z,97202.56
2023-06-19T03:01:17.886Z,97203.44
2023-06-19T03:03:47.821Z,97205.78
2023-06-19T03:06:19.217Z,97207.13
2023-06-19T03:08:47.246Z,97206.38
2023-06-19T03:11:15.831Z,97213.00
2023-06-19T03:13:49.404Z,97223.75
2023-06-19T03:16:18.075Z,97214.78
2023-06-19T03:18:46.819Z,97214.75
2023-06-19T03:21:17.109Z,97222.47
2023-06-19T03:23:45.687Z,97236.56
2023-06-19T03:26:13.646Z,97223.38
2023-06-19T03:28:42.248Z,97225.41
2023-06-19T03:31:10.825Z,97243.69
2023-06-19T03:33:38.855Z,97239.97
2023-06-19T03:36:07.891Z,97231.63
2023-06-19T03:38:37.788Z,97241.94
2023-06-19T03:41:05.959Z,97237.25
2023-06-19T03:43:34.149Z,97247.91
2023-06-19T03:46:02.807Z,97243.22
2023-06-19T03:48:30.970Z,97257.09
2023-06-19T03:50:59.261Z,97258.94
2023-06-19T03:53:27.882Z,97265.94
2023-06-19T03:55:57.524Z,97254.41
2023-06-19T03:58:25.701Z,97252.34
2023-06-19T04:00:54.254Z,97261.88
2023-06-19T04:03:22.822Z,97265.94
2023-06-19T04:05:51.050Z,97259.09
2023-06-19T04:08:19.732Z,97263.25
2023-06-19T04:10:47.963Z,97272.91
2023-06-19T04:13:17.784Z,97265.81
2023-06-19T04:15:48.597Z,97264.53
2023-06-19T04:18:18.978Z,97288.16
2023-06-19T04:20:47.619Z,97292.97
2023-06-19T04:23:16.032Z,97288.03
2023-06-19T04:25:44.802Z,97282.28
2023-06-19T04:28:13.025Z,97276.97
2023-06-19T04:30:44.006Z,97287.16
2023-06-19T04:33:12.747Z,97284.28
2023-06-19T04:35:42.068Z,97282.66
2023-06-19T04:38:11.331Z,97277.28
2023-06-19T04:40:39.904Z,97289.66
2023-06-19T04:43:07.964Z,97301.41
2023-06-19T04:45:36.116Z,97316.88
2023-06-19T04:48:06.817Z,97344.78
2023-06-19T04:50:34.829Z,97365.56
2023-06-19T04:53:03.363Z,97400.53
2023-06-19T04:55:31.726Z,97391.66
2023-06-19T04:58:00.457Z,97411.09
2023-06-19T05:00:29.226Z,97381.78
2023-06-19T05:03:00.654Z,97409.06
2023-06-19T05:05:31.281Z,97403.84
2023-06-19T05:07:59.771Z,97365.28
2023-06-19T05:10:28.305Z,97357.84
2023-06-19T05:12:56.988Z,97344.78
2023-06-19T05:15:25.061Z,97344.78
2023-06-19T05:17:53.777Z,97351.50
2023-06-19T05:20:22.427Z,97336.00
2023-06-19T05:22:52.103Z,97340.78
2023-06-19T05:25:20.819Z,97381.94
2023-06-19T05:27:48.965Z,97403.78
2023-06-19T05:30:17.815Z,97395.25
2023-06-19T05:32:46.950Z,97379.28
2023-06-19T05:35:16.737Z,97378.16
2023-06-19T05:37:46.019Z,97380.88
2023-06-19T05:40:16.219Z,97374.97
2023-06-19T05:42:44.726Z,97378.13
2023-06-19T05:45:13.725Z,97375.00
2023-06-19T05:47:43.521Z,97367.53
2023-06-19T05:50:12.836Z,97374.28
2023-06-19T05:52:44.525Z,97371.91
2023-06-19T05:55:13.564Z,97383.31
2023-06-19T05:57:43.507Z,97377.47
2023-06-19T06:00:15.835Z,97388.94
2023-06-19T06:02:44.205Z,97396.56
2023-06-19T06:05:12.317Z,97381.16
2023-06-19T06:07:41.603Z,97382.00
2023-06-19T06:10:10.773Z,97382.78
2023-06-19T06:12:39.962Z,97388.34
2023-06-19T06:15:11.048Z,97385.97
2023-06-19T06:17:39.241Z,97376.44
2023-06-19T06:20:13.951Z,97376.84
2023-06-19T06:22:42.628Z,97404.97
2023-06-19T06:25:13.851Z,97399.03
2023-06-19T06:27:43.188Z,97392.69
2023-06-19T06:30:14.736Z,97393.88
2023-06-19T06:32:42.956Z,97404.53
2023-06-19T06:35:11.911Z,97422.91
2023-06-19T06:37:40.141Z,97401.34
2023-06-19T06:40:12.696Z,97412.41
2023-06-19T06:42:41.030Z,97418.72
2023-06-19T06:45:10.500Z,97426.63
2023-06-19T06:47:41.690Z,97435.22
2023-06-19T06:50:11.815Z,97456.22
2023-06-19T06:52:40.076Z,97468.91
2023-06-19T06:55:09.256Z,97507.91
2023-06-19T06:57:37.346Z,97495.22
2023-06-19T07:00:08.269Z,97513.22
2023-06-19T07:02:36.953Z,97503.75
2023-06-19T07:05:07.289Z,97505.50
2023-06-19T07:07:35.534Z,97529.03
2023-06-19T07:10:05.229Z,97525.69
2023-06-19T07:12:33.792Z,97564.13
2023-06-19T07:15:02.829Z,97568.34
2023-06-19T07:17:31.773Z,97583.69
2023-06-19T07:20:00.111Z,97600.41
2023-06-19T07:22:29.737Z,97591.66
2023-06-19T07:24:58.422Z,97630.81
2023-06-19T07:27:28.787Z,97654.19
2023-06-19T07:29:57.146Z,97677.13
2023-06-19T07:32:25.831Z,97628.19
2023-06-19T07:34:53.992Z,97703.53
2023-06-19T07:37:22.722Z,97737.78
2023-06-19T07:39:54.031Z,97741.72
2023-06-19T07:42:22.633Z,97703.13
2023-06-19T07:44:50.937Z,97669.50
2023-06-19T07:47:22.254Z,97647.16
2023-06-19T07:49:50.606Z,97658.38
2023-06-19T07:52:18.736Z,97598.09
2023-06-19T07:54:58.114Z,97574.56
2023-06-19T07:57:27.575Z,97582.78
2023-06-19T07:59:57.457Z,97582.09
2023-06-19T08:02:25.686Z,97573.03
2023-06-19T08:04:54.857Z,97568.28
2023-06-19T08:07:23.433Z,97581.75
2023-06-19T08:10:00.282Z,97589.66
2023-06-19T08:12:38.205Z,97581.53
2023-06-19T08:15:07.185Z,97577.81
2023-06-19T08:17:35.937Z,97570.66
2023-06-19T08:20:06.907Z,97576.34
2023-06-19T08:22:35.275Z,97562.53
2023-06-19T08:25:03.351Z,97581.59
2023-06-19T08:27:32.085Z,97577.16
2023-06-19T08:30:01.648Z,97566.75
2023-06-19T08:32:33.288Z,97563.84
2023-06-19T08:35:01.462Z,97556.03
2023-06-19T08:37:30.165Z,97574.38
2023-06-19T08:40:01.627Z,97586.72
2023-06-19T08:42:30.102Z,97606.78
2023-06-19T08:44:59.040Z,97599.25
2023-06-19T08:47:35.719Z,97616.00
2023-06-19T08:50:05.057Z,97625.13
2023-06-19T08:52:34.297Z,97647.94
2023-06-19T08:55:03.356Z,97643.31
2023-06-19T08:57:39.723Z,97674.56
2023-06-19T09:00:12.424Z,97744.09
2023-06-19T09:02:44.591Z,97690.34
2023-06-19T09:05:18.105Z,97721.78
2023-06-19T09:07:47.341Z,97725.41
2023-06-19T09:10:20.267Z,97718.50
2023-06-19T09:13:01.838Z,97717.75
2023-06-19T09:15:32.419Z,97698.38
2023-06-19T09:18:10.563Z,97681.88
2023-06-19T09:20:45.437Z,97758.97
2023-06-19T09:23:14.962Z,97820.00
2023-06-19T09:25:48.351Z,97823.03
2023-06-19T09:28:21.164Z,97832.34
2023-06-19T09:30:58.060Z,97796.41
2023-06-19T09:33:29.379Z,97756.28
2023-06-19T09:35:58.856Z,97737.00
2023-06-19T09:38:28.736Z,97781.13
2023-06-19T09:41:02.811Z,97798.06
2023-06-19T09:43:36.904Z,97762.03
2023-06-19T09:46:06.764Z,97742.09
2023-06-19T09:48:37.257Z,97718.00
2023-06-19T09:51:13.545Z,97691.53
2023-06-19T09:53:42.542Z,97666.41
2023-06-19T09:56:11.948Z,97644.72
2023-06-19T09:58:41.293Z,97622.28
2023-06-19T10:01:09.500Z,97644.75
2023-06-19T10:03:39.213Z,97640.09
2023-06-19T10:06:07.668Z,97631.19
2023-06-19T10:08:42.037Z,97628.75
2023-06-19T10:11:10.632Z,97636.09
2023-06-19T10:13:41.980Z,97613.56
2023-06-19T10:16:21.970Z,97618.88
2023-06-19T10:18:52.549Z,97621.13
2023-06-19T10:21:21.783Z,97612.69
2023-06-19T10:23:58.051Z,97605.50
2023-06-19T10:26:34.231Z,97617.28
2023-06-19T10:29:03.453Z,97635.59
2023-06-19T10:31:33.701Z,97636.97
2023-06-19T10:34:06.175Z,97611.34
2023-06-19T10:36:34.504Z,97637.59
2023-06-19T10:39:03.767Z,97641.16
2023-06-19T10:41:33.224Z,97653.16
2023-06-19T10:44:03.024Z,97647.69
2023-06-19T10:46:33.770Z,97655.25
2023-06-19T10:49:05.928Z,97701.34
2023-06-19T10:51:38.618Z,97740.81
2023-06-19T10:54:08.329Z,97755.50
2023-06-19T10:56:37.313Z,97719.06
2023-06-19T10:59:07.693Z,97725.38
2023-06-19T11:01:38.276Z,97723.69
2023-06-19T11:04:09.692Z,97732.06
2023-06-19T11:06:40.296Z,97727.69
2023-06-19T11:09:10.171Z,97716.06
2023-06-19T11:11:40.491Z,97693.56
2023-06-19T11:14:09.520Z,97710.09
2023-06-19T11:16:41.894Z,97640.19
2023-06-19T11:19:12.109Z,97698.13
2023-06-19T11:21:40.373Z,97688.84
2023-06-19T11:24:14.829Z,97681.19
2023-06-19T11:26:45.436Z,97662.13
2023-06-19T11:29:18.401Z,97646.78
2023-06-19T11:31:48.185Z,97659.56
2023-06-19T11:34:23.398Z,97651.31
2023-06-19T11:36:53.159Z,97658.19
2023-06-19T11:39:22.841Z,97662.28
2023-06-19T11:41:52.704Z,97693.13
2023-06-19T11:44:22.611Z,97698.75
2023-06-19T11:46:50.849Z,97678.22
2023-06-19T11:49:20.901Z,97668.66
2023-06-19T11:51:49.811Z,97639.69
2023-06-19T11:54:18.971Z,97647.72
2023-06-19T11:56:49.360Z,97615.25
2023-06-19T11:59:17.575Z,97592.84
2023-06-19T12:01:45.753Z,97586.16
2023-06-19T12:04:15.503Z,97578.25
2023-06-19T12:06:45.913Z,97574.97
2023-06-19T12:09:14.085Z,97597.13
2023-06-19T12:11:42.776Z,97595.25
2023-06-19T12:14:11.224Z,97602.47
2023-06-19T12:16:39.285Z,97603.34
2023-06-19T12:19:08.518Z,97577.38
2023-06-19T12:21:40.315Z,97565.13
2023-06-19T12:24:12.138Z,97564.56
2023-06-19T12:26:41.179Z,97578.88
2023-06-19T12:29:09.419Z,97576.09
2023-06-19T12:31:38.724Z,97559.81
2023-06-19T12:34:21.174Z,97563.16
2023-06-19T12:36:56.152Z,97557.16
2023-06-19T12:39:26.353Z,97535.06
2023-06-19T12:41:54.625Z,97556.63
2023-06-19T12:44:26.082Z,97559.31
2023-06-19T12:46:54.836Z,97530.44
2023-06-19T12:49:23.127Z,97508.47
2023-06-19T12:51:53.632Z,97515.53
2023-06-19T12:54:22.227Z,97525.34
2023-06-19T12:56:52.447Z,97517.22
2023-06-19T12:59:21.444Z,97526.53
2023-06-19T13:01:49.727Z,97521.22
2023-06-19T13:04:18.133Z,97519.38
2023-06-19T13:06:46.900Z,97494.56
2023-06-19T13:09:15.204Z,97486.25
2023-06-19T13:11:43.330Z,97482.53
2023-06-19T13:14:13.409Z,97487.34
2023-06-19T13:16:46.808Z,97487.94
2023-06-19T13:19:18.844Z,97485.34
2023-06-19T13:21:47.282Z,97486.75
2023-06-19T13:24:15.500Z,97491.34
2023-06-19T13:26:44.116Z,97479.50
2023-06-19T13:29:14.195Z,97482.53
2023-06-19T13:31:45.147Z,97478.47
2023-06-19T13:34:13.403Z,97481.09
2023-06-19T13:36:42.015Z,97480.25
2023-06-19T13:39:10.754Z,97478.38
2023-06-19T13:41:39.351Z,97476.69
2023-06-19T13:44:07.651Z,97478.38
2023-06-19T13:46:37.669Z,97479.72
2023-06-19T13:49:05.803Z,97506.47
2023-06-19T13:51:34.513Z,97482.56
2023-06-19T13:54:04.951Z,97474.31
2023-06-19T13:56:33.393Z,97475.91
2023-06-19T13:59:01.431Z,97468.06
2023-06-19T14:01:30.253Z,97479.50
2023-06-19T14:04:00.498Z,97473.41
2023-06-19T14:06:28.591Z,97459.78
2023-06-19T14:08:57.414Z,97465.28
2023-06-19T14:11:25.964Z,97457.81
2023-06-19T14:13:54.545Z,97473.34
2023-06-19T14:16:23.531Z,97462.66
2023-06-19T14:18:51.886Z,97463.88
2023-06-19T14:21:23.478Z,97449.72
2023-06-19T14:23:51.774Z,97433.97
2023-06-19T14:26:20.115Z,97437.28
2023-06-19T14:28:49.005Z,97451.28
2023-06-19T14:31:17.436Z,97445.25
2023-06-19T14:33:45.577Z,97460.72
2023-06-19T14:36:14.170Z,97453.44
2023-06-19T14:38:44.058Z,97458.59
2023-06-19T14:41:12.135Z,97456.19
2023-06-19T14:43:40.693Z,97459.88
2023-06-19T14:46:09.088Z,97461.38
2023-06-19T14:48:37.538Z,97466.22
2023-06-19T14:51:06.776Z,97459.75
2023-06-19T14:53:34.974Z,97460.44
2023-06-19T14:56:04.738Z,97461.13
2023-06-19T14:58:32.846Z,97462.03
2023-06-19T15:01:01.151Z,97439.19
2023-06-19T15:03:29.421Z,97442.22
2023-06-19T15:05:58.820Z,97449.66
2023-06-19T15:08:28.002Z,97437.78
2023-06-19T15:10:56.196Z,97441.16
2023-06-19T15:13:26.285Z,97454.06
2023-06-19T15:15:54.345Z,97442.16
2023-06-19T15:18:23.397Z,97449.28
2023-06-19T15:20:52.212Z,97452.13
2023-06-19T15:23:20.526Z,97440.47
2023-06-19T15:25:50.205Z,97429.97
2023-06-19T15:28:19.772Z,97440.59
2023-06-19T15:30:49.536Z,97438.66
2023-06-19T15:33:19.244Z,97431.75
2023-06-19T15:35:48.727Z,97433.06
2023-06-19T15:38:16.943Z,97439.53
2023-06-19T15:40:45.862Z,97421.81
2023-06-19T15:43:14.278Z,97436.72
2023-06-19T15:45:42.714Z,97414.28
2023-06-19T15:48:12.781Z,97411.81
2023-06-19T15:50:41.877Z,97398.56
2023-06-19T15:53:10.760Z,97388.44
2023-06-19T15:55:39.559Z,97407.66
2023-06-19T15:58:07.850Z,97389.38
2023-06-19T16:00:36.031Z,97389.53
2023-06-19T16:03:05.860Z,97384.94
2023-06-19T16:05:35.754Z,97380.69
2023-06-19T16:08:04.302Z,97398.47
2023-06-19T16:10:33.112Z,97388.50
2023-06-19T16:13:01.300Z,97375.06
2023-06-19T16:15:30.038Z,97372.47
2023-06-19T16:17:58.706Z,97368.97
2023-06-19T16:20:28.773Z,97371.31
2023-06-19T16:22:59.506Z,97353.72
2023-06-19T16:25:27.874Z,97365.28
2023-06-19T16:27:58.739Z,97363.34
2023-06-19T16:30:28.104Z,97365.28
2023-06-19T16:32:56.976Z,97365.28
2023-06-19T16:35:25.656Z,97358.16
2023-06-19T16:37:55.734Z,97365.94
2023-06-19T16:40:27.203Z,97363.13
2023-06-19T16:42:56.232Z,97354.53
2023-06-19T16:45:28.114Z,97368.16
2023-06-19T16:47:56.871Z,97363.47
2023-06-19T16:50:25.590Z,97361.78
2023-06-19T16:52:54.805Z,97360.94
2023-06-19T16:55:25.646Z,97363.69
2023-06-19T16:57:54.029Z,97357.63
2023-06-19T17:00:23.116Z,97355.09
2023-06-19T17:02:56.147Z,97361.75
2023-06-19T17:05:25.924Z,97352.91
2023-06-19T17:07:53.987Z,97354.28
2023-06-19T17:10:24.096Z,97350.63
2023-06-19T17:12:55.069Z,97356.72
2023-06-19T17:15:23.231Z,97357.06
2023-06-19T17:17:51.875Z,97352.38
2023-06-19T17:20:20.795Z,97353.44
2023-06-19T17:22:49.302Z,97360.69
2023-06-19T17:25:18.034Z,97361.31
2023-06-19T17:27:46.649Z,97359.47
2023-06-19T17:30:16.345Z,97352.38
2023-06-19T17:32:47.012Z,97351.00
2023-06-19T17:35:15.161Z,97353.97
2023-06-19T17:37:44.182Z,97344.69
2023-06-19T17:40:14.588Z,97356.16
2023-06-19T17:42:43.037Z,97353.72
2023-06-19T17:45:12.392Z,97348.72
2023-06-19T17:47:42.608Z,97350.13
2023-06-19T17:50:12.803Z,97360.84
2023-06-19T17:52:41.196Z,97358.63
2023-06-19T17:55:10.871Z,97355.47
2023-06-19T17:57:41.927Z,97344.69
2023-06-19T18:00:11.966Z,97344.41
2023-06-19T18:02:41.536Z,97345.25
2023-06-19T18:05:09.942Z,97344.84
2023-06-19T18:07:38.630Z,97340.44
2023-06-19T18:10:07.946Z,97343.97
2023-06-19T18:12:36.940Z,97343.56
2023-06-19T18:15:05.931Z,97337.69
2023-06-19T18:17:34.160Z,97345.13
2023-06-19T18:20:03.896Z,97340.09
2023-06-19T18:22:32.409Z,97348.16
2023-06-19T18:25:00.361Z,97342.44
2023-06-19T18:27:28.852Z,97338.28
2023-06-19T18:29:57.512Z,97348.47
2023-06-19T18:32:25.769Z,97340.88
2023-06-19T18:34:55.168Z,97337.06
2023-06-19T18:37:25.307Z,97335.69
2023-06-19T18:39:54.103Z,97329.88
2023-06-19T18:42:22.285Z,97325.50
2023-06-19T18:44:50.992Z,97319.56
2023-06-19T18:47:18.990Z,97323.06
2023-06-19T18:49:46.995Z,97329.00
2023-06-19T18:52:15.185Z,97324.78
2023-06-19T18:54:44.601Z,97325.94
2023-06-19T18:57:13.264Z,97329.09
2023-06-19T18:59:41.367Z,97316.59
2023-06-19T19:02:11.892Z,97323.81
2023-06-19T19:04:43.440Z,97317.50
2023-06-19T19:07:11.521Z,97321.22
2023-06-19T19:09:39.785Z,97323.69
2023-06-19T19:12:11.920Z,97322.28
2023-06-19T19:14:42.407Z,97327.63
2023-06-19T19:17:10.902Z,97326.16
2023-06-19T19:19:39.471Z,97330.28
2023-06-19T19:22:07.615Z,97328.44
2023-06-19T19:24:36.228Z,97321.63
2023-06-19T19:27:04.797Z,97316.97
2023-06-19T19:29:34.732Z,97328.25
2023-06-19T19:32:03.264Z,97329.13
2023-06-19T19:34:31.359Z,97330.03
2023-06-19T19:36:59.523Z,97328.50
2023-06-19T19:39:28.161Z,97331.38
2023-06-19T19:41:56.268Z,97324.41
2023-06-19T19:44:24.534Z,97313.81
2023-06-19T19:46:55.282Z,97310.66
2023-06-19T19:49:23.463Z,97308.41
2023-06-19T19:51:51.600Z,97309.34
2023-06-19T19:54:20.126Z,97304.94
2023-06-19T19:56:48.322Z,97311.44
2023-06-19T19:59:16.462Z,97321.72
2023-06-19T20:01:45.153Z,97316.59
2023-06-19T20:04:17.303Z,97311.50
2023-06-19T20:06:46.429Z,97312.34
2023-06-19T20:09:15.117Z,97313.53
2023-06-19T20:11:43.347Z,97312.00
2023-06-19T20:14:12.344Z,97315.22
2023-06-19T20:16:40.568Z,97323.97
2023-06-19T20:19:08.764Z,97319.25
2023-06-19T20:21:39.037Z,97319.31
2023-06-19T20:24:07.558Z,97315.75
2023-06-19T20:26:35.649Z,97320.50
2023-06-19T20:29:03.821Z,97316.16
2023-06-19T20:31:32.494Z,97324.47
2023-06-19T20:34:00.634Z,97316.63
2023-06-19T20:36:29.285Z,97316.66
2023-06-19T20:38:58.889Z,97315.50
2023-06-19T20:41:27.922Z,97312.34
2023-06-19T20:43:56.183Z,97319.47
2023-06-19T20:46:24.569Z,97308.38
2023-06-19T20:48:53.045Z,97311.16
2023-06-19T20:51:21.996Z,97315.09
2023-06-19T20:53:50.220Z,97313.91
2023-06-19T20:56:20.029Z,97316.69
2023-06-19T20:58:47.974Z,97315.50
2023-06-19T21:01:16.307Z,97317.88
2023-06-19T21:03:44.852Z,97313.13
2023-06-19T21:06:13.107Z,97312.75
2023-06-19T21:08:41.099Z,97306.78
2023-06-19T21:11:09.553Z,97317.47
2023-06-19T21:13:39.062Z,97319.84
2023-06-19T21:16:07.238Z,97328.53
2023-06-19T21:18:35.749Z,97322.59
2023-06-19T21:21:03.767Z,97326.13
2023-06-19T21:23:31.797Z,97330.06
2023-06-19T21:26:00.290Z,97331.66
2023-06-19T21:28:29.275Z,97316.59
2023-06-19T21:30:58.660Z,97324.13
2023-06-19T21:33:32.851Z,97321.00
2023-06-19T21:36:00.866Z,97322.16
2023-06-19T21:38:28.987Z,97328.53
2023-06-19T21:40:57.692Z,97329.31
2023-06-19T21:43:25.897Z,97330.53
2023-06-19T21:45:55.138Z,97324.50
2023-06-19T21:48:26.303Z,97340.78
2023-06-19T21:50:54.878Z,97333.28
2023-06-19T21:53:23.195Z,97338.03
2023-06-19T21:55:51.796Z,97336.44
2023-06-19T21:58:23.030Z,97333.28
2023-06-19T22:00:51.552Z,97330.88
2023-06-19T22:03:19.854Z,97337.22
2023-06-19T22:05:49.907Z,97331.25
2023-06-19T22:08:24.463Z,97324.91
2023-06-19T22:11:02.603Z,97332.84
2023-06-19T22:13:32.619Z,97327.66
2023-06-19T22:16:00.934Z,97328.00
2023-06-19T22:18:29.462Z,97330.03
2023-06-19T22:20:58.963Z,97329.16
2023-06-19T22:23:27.987Z,97320.50
2023-06-19T22:25:56.679Z,97325.25
2023-06-19T22:28:25.077Z,97318.47
2023-06-19T22:30:53.067Z,97316.53
2023-06-19T22:33:21.321Z,97315.72
2023-06-19T22:35:50.393Z,97326.75
2023-06-19T22:38:19.823Z,97313.38
2023-06-19T22:40:48.313Z,97317.28
2023-06-19T22:43:16.558Z,97325.16
2023-06-19T22:45:44.883Z,97319.59
2023-06-19T22:48:13.520Z,97314.06
2023-06-19T22:50:41.595Z,97307.66
2023-06-19T22:53:09.626Z,97298.53
2023-06-19T22:55:39.439Z,97295.72
2023-06-19T22:58:07.601Z,97289.84
2023-06-19T23:00:36.249Z,97295.38
2023-06-19T23:03:07.159Z,97294.19
2023-06-19T23:05:35.533Z,97289.50
2023-06-19T23:08:03.645Z,97298.56
2023-06-19T23:10:32.168Z,97293.38
2023-06-19T23:13:01.677Z,97297.56
2023-06-19T23:15:29.841Z,97295.94
2023-06-19T23:17:58.824Z,97294.66
2023-06-19T23:20:27.014Z,97289.41
2023-06-19T23:22:55.094Z,97295.41
2023-06-19T23:25:25.617Z,97291.94
2023-06-19T23:27:53.984Z,97289.16
2023-06-19T23:30:24.394Z,97288.31
2023-06-19T23:32:53.012Z,97288.13
2023-06-19T23:35:24.101Z,97284.94
2023-06-19T23:37:54.578Z,97286.81
2023-06-19T23:40:22.633Z,97282.78
2023-06-19T23:42:51.182Z,97280.34
2023-06-19T23:45:19.210Z,97285.47
2023-06-19T23:47:48.962Z,97281.16
2023-06-19T23:50:18.280Z,97274.44
2023-06-19T23:52:47.250Z,97268.03
2023-06-19T23:55:15.608Z,97262.13
2023-06-19T23:57:45.599Z,97261.50
